Airfield :
LOGIN :

Register | Disclaimer

   EN    FR    IT 

 










Legend :    VFR   Marginal VFR   IFR   Intensive IFR   Very Intensive IFR
Visi :
Ceiling :
>= 8 km
>= 3000ft
5 to 8 km
1000 to 3000 ft
1500m to 5 km
500 to 1000 ft
800 to 1500m
200 to 500 ft
< 800m
< 200 ft
Symbols :   Thunderstorms  Fog  Heavy snow  Heavy precipitations  Wind > 20 kt
SIGMETs :     Misc.  Thunderstorms  Icing  Turbulence  Mountain Waves  Volcanic Ashes






- Airport Elevation : 142 ft
- IATA code : ALC


LEAL - Alicante

CURRENT METAR :
  • 052030Z 16002KT CAVOK 24/20 Q1018 NOSIG

EXPIRED METARs :
  • 052000Z 12003KT 090V150 CAVOK 25/20 Q1018 NOSIG
  • 051930Z 12003KT 080V160 CAVOK 25/19 Q1018 NOSIG
  • 051900Z 10005KT 070V160 CAVOK 26/19 Q1018 NOSIG
  • 051830Z 11003KT 050V170 CAVOK 26/19 Q1018 NOSIG
  • 051800Z 12003KT 050V170 CAVOK 26/19 Q1018 NOSIG

TAF TAF LEAL
Valid from the 05 at 18:00 until the 06 at 18:00 UTC


051700Z 0518/0618 12010KT 9999 FEW020 TX31/0612Z TN21/0606Z
BECMG 0518/0520 VRB03KT
BECMG 0610/0612 12010KT



MET'MAP, your aeronautical weather chart ! - Copyright ORBIFLY December 2007 - Disclaimer

ORBIFLY MET'MAP TEAM :

Programming & Development : Alexandra Zaïnal
Concept & original design : Baudouin d'Aumeries
Assistance for programming : Marc-Olivier Méhu
Technical & hardware support : Manuel Goepfert

Contact : metmap@orbifly.com




SOURCES & CREDITS :

   NOAA